NWI weather

Norwich International Airport
Norwich, England, United Kingdom

Public forecast

Using degrees Celsius for public forecast. Weather courtesy of forecast.io.

METAR (pilot weather report)

Retrieved 2019/07/19 14:20 UTC (0 seconds ago):

EGSH 191420Z 19013KT 9999 -RADZ FEW009 SCT019 BKN031 20/15 Q1010 NOSIG

TAF (pilot weather forecast)

Forecast is more than 12 hours old.

Retrieved 2019/04/11 21:03 UTC (3 months ago):

TAF TAF EGSH 110458Z 1021/1124 CNL